sensor_id;sensor_type;location;lat;lon;timestamp;temperature;humidity
35445;DHT22;21562;49.476;6.086;2024-02-26T00:02:23;9.50;97.80
35445;DHT22;21562;49.476;6.086;2024-02-26T00:04:49;9.50;95.30
35445;DHT22;21562;49.476;6.086;2024-02-26T00:07:15;9.40;99.90
35445;DHT22;21562;49.476;6.086;2024-02-26T00:09:41;9.40;99.90
35445;DHT22;21562;49.476;6.086;2024-02-26T00:12:07;9.50;99.90
35445;DHT22;21562;49.476;6.086;2024-02-26T00:14:33;9.70;99.90
35445;DHT22;21562;49.476;6.086;2024-02-26T00:16:59;9.70;96.30
35445;DHT22;21562;49.476;6.086;2024-02-26T00:19:25;9.60;99.90
35445;DHT22;21562;49.476;6.086;2024-02-26T00:21:51;9.70;95.40
35445;DHT22;21562;49.476;6.086;2024-02-26T00:24:16;9.60;99.90
35445;DHT22;21562;49.476;6.086;2024-02-26T00:26:42;9.70;99.90
35445;DHT22;21562;49.476;6.086;2024-02-26T00:29:08;9.30;99.90
35445;DHT22;21562;49.476;6.086;2024-02-26T00:31:34;9.30;99.90
35445;DHT22;21562;49.476;6.086;2024-02-26T00:34:00;9.40;99.90
35445;DHT22;21562;49.476;6.086;2024-02-26T00:36:26;9.50;99.90
35445;DHT22;21562;49.476;6.086;2024-02-26T00:38:52;9.60;99.90
35445;DHT22;21562;49.476;6.086;2024-02-26T00:41:18;9.80;99.90
35445;DHT22;21562;49.476;6.086;2024-02-26T00:43:44;9.90;93.90
35445;DHT22;21562;49.476;6.086;2024-02-26T00:46:10;9.80;99.90
35445;DHT22;21562;49.476;6.086;2024-02-26T00:48:36;9.70;99.90
35445;DHT22;21562;49.476;6.086;2024-02-26T00:51:02;9.50;99.90
35445;DHT22;21562;49.476;6.086;2024-02-26T00:53:31;9.30;99.90
35445;DHT22;21562;49.476;6.086;2024-02-26T00:55:57;9.40;99.90
35445;DHT22;21562;49.476;6.086;2024-02-26T00:58:24;9.30;99.90
35445;DHT22;21562;49.476;6.086;2024-02-26T01:00:50;9.10;99.90
35445;DHT22;21562;49.476;6.086;2024-02-26T01:03:17;9.40;99.90
35445;DHT22;21562;49.476;6.086;2024-02-26T01:05:43;9.30;99.90
35445;DHT22;21562;49.476;6.086;2024-02-26T01:08:08;9.20;99.90
35445;DHT22;21562;49.476;6.086;2024-02-26T01:10:34;9.00;99.90
35445;DHT22;21562;49.476;6.086;2024-02-26T01:13:00;8.80;99.90
35445;DHT22;21562;49.476;6.086;2024-02-26T01:15:26;8.80;99.90
35445;DHT22;21562;49.476;6.086;2024-02-26T01:17:52;8.90;99.90
35445;DHT22;21562;49.476;6.086;2024-02-26T01:20:18;9.00;99.90
35445;DHT22;21562;49.476;6.086;2024-02-26T01:22:44;8.70;99.90
35445;DHT22;21562;49.476;6.086;2024-02-26T01:25:10;8.80;99.90
35445;DHT22;21562;49.476;6.086;2024-02-26T01:27:37;9.00;99.90
35445;DHT22;21562;49.476;6.086;2024-02-26T01:30:06;8.50;99.90
35445;DHT22;21562;49.476;6.086;2024-02-26T01:32:32;8.40;99.90
35445;DHT22;21562;49.476;6.086;2024-02-26T01:34:58;8.50;99.90
35445;DHT22;21562;49.476;6.086;2024-02-26T01:37:23;8.50;99.90
35445;DHT22;21562;49.476;6.086;2024-02-26T01:39:49;8.50;99.90
35445;DHT22;21562;49.476;6.086;2024-02-26T01:42:15;8.70;99.90
35445;DHT22;21562;49.476;6.086;2024-02-26T01:44:40;8.80;99.90
35445;DHT22;21562;49.476;6.086;2024-02-26T01:47:09;8.50;99.90
35445;DHT22;21562;49.476;6.086;2024-02-26T01:49:36;8.50;99.90
35445;DHT22;21562;49.476;6.086;2024-02-26T01:52:03;8.50;99.90
35445;DHT22;21562;49.476;6.086;2024-02-26T01:54:29;8.50;99.90
35445;DHT22;21562;49.476;6.086;2024-02-26T01:56:56;8.50;99.90
35445;DHT22;21562;49.476;6.086;2024-02-26T01:59:23;8.50;99.90
35445;DHT22;21562;49.476;6.086;2024-02-26T02:01:54;8.50;99.90
35445;DHT22;21562;49.476;6.086;2024-02-26T02:04:21;8.50;99.90
35445;DHT22;21562;49.476;6.086;2024-02-26T02:06:48;8.40;99.90
35445;DHT22;21562;49.476;6.086;2024-02-26T02:09:14;8.50;99.90
35445;DHT22;21562;49.476;6.086;2024-02-26T02:11:42;8.50;99.90
35445;DHT22;21562;49.476;6.086;2024-02-26T02:14:07;8.60;99.90
35445;DHT22;21562;49.476;6.086;2024-02-26T02:16:33;8.60;99.90
35445;DHT22;21562;49.476;6.086;2024-02-26T02:18:59;8.70;99.90
35445;DHT22;21562;49.476;6.086;2024-02-26T02:21:25;8.70;99.90
35445;DHT22;21562;49.476;6.086;2024-02-26T02:23:50;8.50;99.90
35445;DHT22;21562;49.476;6.086;2024-02-26T02:26:16;8.40;99.90
35445;DHT22;21562;49.476;6.086;2024-02-26T02:28:43;8.50;99.90
35445;DHT22;21562;49.476;6.086;2024-02-26T02:31:09;8.70;99.90
35445;DHT22;21562;49.476;6.086;2024-02-26T02:33:35;8.80;99.90
35445;DHT22;21562;49.476;6.086;2024-02-26T02:36:01;8.80;99.90
35445;DHT22;21562;49.476;6.086;2024-02-26T02:38:27;8.70;99.90
35445;DHT22;21562;49.476;6.086;2024-02-26T02:40:55;8.70;99.90
35445;DHT22;21562;49.476;6.086;2024-02-26T02:43:21;8.50;99.90
35445;DHT22;21562;49.476;6.086;2024-02-26T02:45:46;8.40;99.90
35445;DHT22;21562;49.476;6.086;2024-02-26T02:48:12;8.50;99.90
35445;DHT22;21562;49.476;6.086;2024-02-26T02:50:38;8.50;99.90
35445;DHT22;21562;49.476;6.086;2024-02-26T02:53:04;8.50;99.90
35445;DHT22;21562;49.476;6.086;2024-02-26T02:55:30;8.70;99.90
35445;DHT22;21562;49.476;6.086;2024-02-26T02:57:55;8.60;99.90
35445;DHT22;21562;49.476;6.086;2024-02-26T03:00:21;8.70;99.90
35445;DHT22;21562;49.476;6.086;2024-02-26T03:02:50;8.80;99.90
35445;DHT22;21562;49.476;6.086;2024-02-26T03:05:15;8.80;99.90
35445;DHT22;21562;49.476;6.086;2024-02-26T03:07:41;8.40;99.90
35445;DHT22;21562;49.476;6.086;2024-02-26T03:10:07;8.50;99.90
35445;DHT22;21562;49.476;6.086;2024-02-26T03:12:34;8.60;99.90
35445;DHT22;21562;49.476;6.086;2024-02-26T03:15:00;8.50;99.90
35445;DHT22;21562;49.476;6.086;2024-02-26T03:17:30;8.70;99.90
35445;DHT22;21562;49.476;6.086;2024-02-26T03:19:55;8.60;99.90
35445;DHT22;21562;49.476;6.086;2024-02-26T03:22:21;8.70;99.90
35445;DHT22;21562;49.476;6.086;2024-02-26T03:24:47;8.70;99.90
35445;DHT22;21562;49.476;6.086;2024-02-26T03:27:13;9.00;99.90
35445;DHT22;21562;49.476;6.086;2024-02-26T03:29:40;8.90;99.90
35445;DHT22;21562;49.476;6.086;2024-02-26T03:32:06;8.80;99.90
35445;DHT22;21562;49.476;6.086;2024-02-26T03:34:32;8.90;99.90
35445;DHT22;21562;49.476;6.086;2024-02-26T03:37:01;9.00;99.90
35445;DHT22;21562;49.476;6.086;2024-02-26T03:39:26;8.90;99.90
35445;DHT22;21562;49.476;6.086;2024-02-26T03:41:52;9.00;99.90
35445;DHT22;21562;49.476;6.086;2024-02-26T03:44:18;8.90;99.90
35445;DHT22;21562;49.476;6.086;2024-02-26T03:46:44;8.90;99.90
35445;DHT22;21562;49.476;6.086;2024-02-26T03:49:09;8.80;99.90
35445;DHT22;21562;49.476;6.086;2024-02-26T03:51:35;8.80;99.90
35445;DHT22;21562;49.476;6.086;2024-02-26T03:54:01;9.10;99.90
35445;DHT22;21562;49.476;6.086;2024-02-26T03:56:27;9.20;99.90
35445;DHT22;21562;49.476;6.086;2024-02-26T03:58:53;9.30;99.90
35445;DHT22;21562;49.476;6.086;2024-02-26T04:01:19;9.40;99.90
35445;DHT22;21562;49.476;6.086;2024-02-26T04:03:45;9.50;99.90
35445;DHT22;21562;49.476;6.086;2024-02-26T04:06:11;9.50;99.90
35445;DHT22;21562;49.476;6.086;2024-02-26T04:08:40;9.60;99.90
35445;DHT22;21562;49.476;6.086;2024-02-26T04:11:06;9.80;99.90
35445;DHT22;21562;49.476;6.086;2024-02-26T04:13:33;9.90;99.90
35445;DHT22;21562;49.476;6.086;2024-02-26T04:16:00;10.00;99.90
35445;DHT22;21562;49.476;6.086;2024-02-26T04:18:27;9.90;99.90
35445;DHT22;21562;49.476;6.086;2024-02-26T04:20:53;9.90;99.90
35445;DHT22;21562;49.476;6.086;2024-02-26T04:23:19;10.10;99.90
35445;DHT22;21562;49.476;6.086;2024-02-26T04:25:45;10.10;99.90
35445;DHT22;21562;49.476;6.086;2024-02-26T04:28:11;10.20;99.90
35445;DHT22;21562;49.476;6.086;2024-02-26T04:30:37;10.30;99.90
35445;DHT22;21562;49.476;6.086;2024-02-26T04:33:03;10.20;99.90
35445;DHT22;21562;49.476;6.086;2024-02-26T04:35:29;10.40;99.90
35445;DHT22;21562;49.476;6.086;2024-02-26T04:37:55;10.20;99.90
35445;DHT22;21562;49.476;6.086;2024-02-26T04:40:21;10.20;99.90
35445;DHT22;21562;49.476;6.086;2024-02-26T04:42:46;10.10;99.90
35445;DHT22;21562;49.476;6.086;2024-02-26T04:45:12;10.20;99.90
35445;DHT22;21562;49.476;6.086;2024-02-26T04:47:38;10.20;99.90
35445;DHT22;21562;49.476;6.086;2024-02-26T04:50:05;10.10;99.90
35445;DHT22;21562;49.476;6.086;2024-02-26T04:52:31;10.00;99.90
35445;DHT22;21562;49.476;6.086;2024-02-26T04:54:56;10.10;99.90
35445;DHT22;21562;49.476;6.086;2024-02-26T04:57:22;10.10;99.90
35445;DHT22;21562;49.476;6.086;2024-02-26T04:59:48;10.00;99.90
35445;DHT22;21562;49.476;6.086;2024-02-26T05:02:14;9.80;99.90
35445;DHT22;21562;49.476;6.086;2024-02-26T05:04:39;9.60;99.90
35445;DHT22;21562;49.476;6.086;2024-02-26T05:07:05;9.40;99.90
35445;DHT22;21562;49.476;6.086;2024-02-26T05:09:32;9.20;99.90
35445;DHT22;21562;49.476;6.086;2024-02-26T05:11:58;9.30;99.90
35445;DHT22;21562;49.476;6.086;2024-02-26T05:14:23;9.30;99.90
35445;DHT22;21562;49.476;6.086;2024-02-26T05:16:49;9.30;99.90
35445;DHT22;21562;49.476;6.086;2024-02-26T05:19:15;9.40;99.90
35445;DHT22;21562;49.476;6.086;2024-02-26T05:21:41;9.50;99.90
35445;DHT22;21562;49.476;6.086;2024-02-26T05:24:08;9.60;99.90
35445;DHT22;21562;49.476;6.086;2024-02-26T05:26:33;9.70;99.90
35445;DHT22;21562;49.476;6.086;2024-02-26T05:28:59;9.80;99.90
35445;DHT22;21562;49.476;6.086;2024-02-26T05:31:26;9.70;99.90
35445;DHT22;21562;49.476;6.086;2024-02-26T05:33:52;9.70;99.90
35445;DHT22;21562;49.476;6.086;2024-02-26T05:36:21;9.80;99.90
35445;DHT22;21562;49.476;6.086;2024-02-26T05:38:48;9.60;99.90
35445;DHT22;21562;49.476;6.086;2024-02-26T05:41:15;9.60;99.90
35445;DHT22;21562;49.476;6.086;2024-02-26T05:43:41;9.60;99.90
35445;DHT22;21562;49.476;6.086;2024-02-26T05:46:07;9.50;99.90
35445;DHT22;21562;49.476;6.086;2024-02-26T05:48:33;9.50;99.90
35445;DHT22;21562;49.476;6.086;2024-02-26T05:50:58;9.50;99.90
35445;DHT22;21562;49.476;6.086;2024-02-26T05:53:24;9.50;99.90
35445;DHT22;21562;49.476;6.086;2024-02-26T05:55:50;9.40;99.90
35445;DHT22;21562;49.476;6.086;2024-02-26T05:58:15;9.40;99.90
35445;DHT22;21562;49.476;6.086;2024-02-26T06:00:41;9.50;99.90
35445;DHT22;21562;49.476;6.086;2024-02-26T06:03:07;9.70;99.90
35445;DHT22;21562;49.476;6.086;2024-02-26T06:05:32;9.60;99.90
35445;DHT22;21562;49.476;6.086;2024-02-26T06:07:58;9.60;99.90
35445;DHT22;21562;49.476;6.086;2024-02-26T06:10:24;9.80;99.90
35445;DHT22;21562;49.476;6.086;2024-02-26T06:12:49;9.90;99.90
35445;DHT22;21562;49.476;6.086;2024-02-26T06:15:15;10.00;99.90
35445;DHT22;21562;49.476;6.086;2024-02-26T06:17:41;10.10;99.90
35445;DHT22;21562;49.476;6.086;2024-02-26T06:20:07;10.10;99.90
35445;DHT22;21562;49.476;6.086;2024-02-26T06:22:37;10.20;99.90
35445;DHT22;21562;49.476;6.086;2024-02-26T06:25:03;10.10;99.90
35445;DHT22;21562;49.476;6.086;2024-02-26T06:27:29;10.10;99.90
35445;DHT22;21562;49.476;6.086;2024-02-26T06:29:54;10.10;99.90
35445;DHT22;21562;49.476;6.086;2024-02-26T06:32:20;10.20;99.90
35445;DHT22;21562;49.476;6.086;2024-02-26T06:34:48;10.30;99.90
35445;DHT22;21562;49.476;6.086;2024-02-26T06:37:14;10.40;99.90
35445;DHT22;21562;49.476;6.086;2024-02-26T06:39:39;10.50;99.90
35445;DHT22;21562;49.476;6.086;2024-02-26T06:42:06;10.30;99.90
35445;DHT22;21562;49.476;6.086;2024-02-26T06:44:32;10.30;99.90
35445;DHT22;21562;49.476;6.086;2024-02-26T06:46:59;10.20;99.90
35445;DHT22;21562;49.476;6.086;2024-02-26T06:49:25;10.40;99.90
35445;DHT22;21562;49.476;6.086;2024-02-26T06:51:51;10.40;99.90
35445;DHT22;21562;49.476;6.086;2024-02-26T06:54:17;10.30;99.90
35445;DHT22;21562;49.476;6.086;2024-02-26T06:56:42;10.20;99.90
35445;DHT22;21562;49.476;6.086;2024-02-26T06:59:08;10.30;99.90
35445;DHT22;21562;49.476;6.086;2024-02-26T07:01:34;10.40;99.90
35445;DHT22;21562;49.476;6.086;2024-02-26T07:17:29;10.40;99.90
35445;DHT22;21562;49.476;6.086;2024-02-26T07:19:55;10.40;99.90
35445;DHT22;21562;49.476;6.086;2024-02-26T07:22:20;10.30;99.90
35445;DHT22;21562;49.476;6.086;2024-02-26T07:24:46;10.40;99.90
35445;DHT22;21562;49.476;6.086;2024-02-26T07:27:12;10.40;99.90
35445;DHT22;21562;49.476;6.086;2024-02-26T07:29:38;10.40;99.90
35445;DHT22;21562;49.476;6.086;2024-02-26T07:32:04;10.50;99.90
35445;DHT22;21562;49.476;6.086;2024-02-26T07:34:30;10.40;99.90
35445;DHT22;21562;49.476;6.086;2024-02-26T07:36:56;10.20;99.90
35445;DHT22;21562;49.476;6.086;2024-02-26T07:39:22;10.10;99.90
35445;DHT22;21562;49.476;6.086;2024-02-26T07:41:47;10.10;99.90
35445;DHT22;21562;49.476;6.086;2024-02-26T07:44:15;9.80;99.90
35445;DHT22;21562;49.476;6.086;2024-02-26T07:46:41;9.70;99.90
35445;DHT22;21562;49.476;6.086;2024-02-26T07:49:07;9.60;99.90
35445;DHT22;21562;49.476;6.086;2024-02-26T07:51:33;9.70;99.90
35445;DHT22;21562;49.476;6.086;2024-02-26T07:54:00;9.70;99.90
35445;DHT22;21562;49.476;6.086;2024-02-26T07:56:26;10.00;99.90
35445;DHT22;21562;49.476;6.086;2024-02-26T07:58:52;10.10;99.90
35445;DHT22;21562;49.476;6.086;2024-02-26T08:01:17;10.20;99.90
35445;DHT22;21562;49.476;6.086;2024-02-26T08:03:43;10.30;99.90
35445;DHT22;21562;49.476;6.086;2024-02-26T08:06:09;10.30;99.90
35445;DHT22;21562;49.476;6.086;2024-02-26T08:08:34;10.30;99.90
35445;DHT22;21562;49.476;6.086;2024-02-26T08:11:00;10.30;99.90
35445;DHT22;21562;49.476;6.086;2024-02-26T08:13:26;10.30;99.90
35445;DHT22;21562;49.476;6.086;2024-02-26T08:15:52;10.30;99.90
35445;DHT22;21562;49.476;6.086;2024-02-26T08:18:18;10.50;99.90
35445;DHT22;21562;49.476;6.086;2024-02-26T08:20:44;10.50;99.90
35445;DHT22;21562;49.476;6.086;2024-02-26T08:23:10;10.60;99.90
35445;DHT22;21562;49.476;6.086;2024-02-26T08:25:36;10.60;99.90
35445;DHT22;21562;49.476;6.086;2024-02-26T08:28:02;10.40;99.90
35445;DHT22;21562;49.476;6.086;2024-02-26T08:30:28;10.30;99.90
35445;DHT22;21562;49.476;6.086;2024-02-26T08:32:54;10.50;99.90
35445;DHT22;21562;49.476;6.086;2024-02-26T08:35:19;10.50;99.90
35445;DHT22;21562;49.476;6.086;2024-02-26T08:37:46;10.40;99.90
35445;DHT22;21562;49.476;6.086;2024-02-26T08:40:12;10.30;99.90
35445;DHT22;21562;49.476;6.086;2024-02-26T08:42:38;10.50;99.90
35445;DHT22;21562;49.476;6.086;2024-02-26T08:45:04;10.50;99.90
35445;DHT22;21562;49.476;6.086;2024-02-26T08:47:30;10.50;99.90
35445;DHT22;21562;49.476;6.086;2024-02-26T08:49:55;10.30;99.90
35445;DHT22;21562;49.476;6.086;2024-02-26T08:52:21;10.20;99.90
35445;DHT22;21562;49.476;6.086;2024-02-26T08:54:50;10.30;99.90
35445;DHT22;21562;49.476;6.086;2024-02-26T08:57:16;10.40;99.90
35445;DHT22;21562;49.476;6.086;2024-02-26T08:59:41;10.50;99.90
35445;DHT22;21562;49.476;6.086;2024-02-26T09:02:08;10.50;99.90
35445;DHT22;21562;49.476;6.086;2024-02-26T09:04:36;10.60;99.90
35445;DHT22;21562;49.476;6.086;2024-02-26T09:07:02;10.40;99.90
35445;DHT22;21562;49.476;6.086;2024-02-26T09:09:29;10.50;99.90
35445;DHT22;21562;49.476;6.086;2024-02-26T09:11:55;10.50;99.90
35445;DHT22;21562;49.476;6.086;2024-02-26T09:14:21;10.50;99.90
35445;DHT22;21562;49.476;6.086;2024-02-26T09:16:47;10.40;99.90
35445;DHT22;21562;49.476;6.086;2024-02-26T09:19:17;10.50;99.90
35445;DHT22;21562;49.476;6.086;2024-02-26T09:21:44;10.70;99.90
35445;DHT22;21562;49.476;6.086;2024-02-26T09:24:13;10.70;99.90
35445;DHT22;21562;49.476;6.086;2024-02-26T09:26:40;10.70;99.90
35445;DHT22;21562;49.476;6.086;2024-02-26T09:29:05;10.60;99.90
35445;DHT22;21562;49.476;6.086;2024-02-26T09:31:31;10.70;99.90
35445;DHT22;21562;49.476;6.086;2024-02-26T09:33:57;10.70;99.90
35445;DHT22;21562;49.476;6.086;2024-02-26T09:36:23;10.80;99.90
35445;DHT22;21562;49.476;6.086;2024-02-26T09:38:49;10.90;99.90
35445;DHT22;21562;49.476;6.086;2024-02-26T09:41:15;11.00;99.90
35445;DHT22;21562;49.476;6.086;2024-02-26T09:43:44;10.90;99.90
35445;DHT22;21562;49.476;6.086;2024-02-26T09:46:11;10.60;99.90
35445;DHT22;21562;49.476;6.086;2024-02-26T09:48:37;10.80;99.90
35445;DHT22;21562;49.476;6.086;2024-02-26T09:51:04;10.90;99.90
35445;DHT22;21562;49.476;6.086;2024-02-26T09:53:32;10.90;99.90
35445;DHT22;21562;49.476;6.086;2024-02-26T09:55:58;11.40;99.90
35445;DHT22;21562;49.476;6.086;2024-02-26T09:58:26;11.50;99.90
35445;DHT22;21562;49.476;6.086;2024-02-26T10:00:56;11.70;99.90
35445;DHT22;21562;49.476;6.086;2024-02-26T10:03:30;11.70;99.90
35445;DHT22;21562;49.476;6.086;2024-02-26T10:05:56;11.70;99.90
35445;DHT22;21562;49.476;6.086;2024-02-26T10:08:24;11.80;99.90
35445;DHT22;21562;49.476;6.086;2024-02-26T10:10:50;11.70;99.90
35445;DHT22;21562;49.476;6.086;2024-02-26T10:13:17;11.70;99.90
35445;DHT22;21562;49.476;6.086;2024-02-26T10:15:43;11.80;99.90
35445;DHT22;21562;49.476;6.086;2024-02-26T10:18:08;11.80;99.90
35445;DHT22;21562;49.476;6.086;2024-02-26T10:20:34;11.80;99.90
35445;DHT22;21562;49.476;6.086;2024-02-26T10:23:03;11.70;99.90
35445;DHT22;21562;49.476;6.086;2024-02-26T10:25:31;11.50;99.90
35445;DHT22;21562;49.476;6.086;2024-02-26T10:28:00;11.40;99.90
35445;DHT22;21562;49.476;6.086;2024-02-26T10:30:29;11.60;99.90
35445;DHT22;21562;49.476;6.086;2024-02-26T10:32:56;11.80;99.90
35445;DHT22;21562;49.476;6.086;2024-02-26T10:35:22;11.70;99.90
35445;DHT22;21562;49.476;6.086;2024-02-26T10:37:51;11.70;99.90
35445;DHT22;21562;49.476;6.086;2024-02-26T10:40:18;11.70;99.90
35445;DHT22;21562;49.476;6.086;2024-02-26T10:42:44;11.80;99.90
35445;DHT22;21562;49.476;6.086;2024-02-26T10:45:12;11.90;99.90
35445;DHT22;21562;49.476;6.086;2024-02-26T10:47:39;11.70;99.90
35445;DHT22;21562;49.476;6.086;2024-02-26T10:50:06;11.30;99.90
35445;DHT22;21562;49.476;6.086;2024-02-26T10:52:33;11.60;99.90
35445;DHT22;21562;49.476;6.086;2024-02-26T10:55:04;11.90;99.90
35445;DHT22;21562;49.476;6.086;2024-02-26T10:57:36;12.10;99.90
35445;DHT22;21562;49.476;6.086;2024-02-26T11:00:04;12.20;99.90
35445;DHT22;21562;49.476;6.086;2024-02-26T11:02:33;12.10;99.90
35445;DHT22;21562;49.476;6.086;2024-02-26T11:05:02;12.30;99.90
35445;DHT22;21562;49.476;6.086;2024-02-26T11:07:30;12.20;99.90
35445;DHT22;21562;49.476;6.086;2024-02-26T11:09:56;12.10;99.90
35445;DHT22;21562;49.476;6.086;2024-02-26T11:12:23;12.10;99.90
35445;DHT22;21562;49.476;6.086;2024-02-26T11:14:50;12.10;99.90
35445;DHT22;21562;49.476;6.086;2024-02-26T11:17:22;11.90;99.90
35445;DHT22;21562;49.476;6.086;2024-02-26T11:19:48;12.00;99.90
35445;DHT22;21562;49.476;6.086;2024-02-26T11:22:15;12.00;99.90
35445;DHT22;21562;49.476;6.086;2024-02-26T11:24:41;12.00;99.90
35445;DHT22;21562;49.476;6.086;2024-02-26T11:27:10;12.10;99.90
35445;DHT22;21562;49.476;6.086;2024-02-26T11:29:49;12.20;99.90
35445;DHT22;21562;49.476;6.086;2024-02-26T11:32:16;12.40;99.90
35445;DHT22;21562;49.476;6.086;2024-02-26T11:34:42;12.20;99.90
35445;DHT22;21562;49.476;6.086;2024-02-26T11:37:13;12.10;99.90
35445;DHT22;21562;49.476;6.086;2024-02-26T11:39:42;12.20;99.90
35445;DHT22;21562;49.476;6.086;2024-02-26T11:42:13;12.30;99.90
35445;DHT22;21562;49.476;6.086;2024-02-26T11:44:39;12.20;99.90
35445;DHT22;21562;49.476;6.086;2024-02-26T11:47:17;12.30;99.90
35445;DHT22;21562;49.476;6.086;2024-02-26T11:49:43;12.40;99.90
35445;DHT22;21562;49.476;6.086;2024-02-26T11:52:10;12.10;99.90
35445;DHT22;21562;49.476;6.086;2024-02-26T11:54:50;12.30;99.90
35445;DHT22;21562;49.476;6.086;2024-02-26T12:00:15;12.30;99.90
35445;DHT22;21562;49.476;6.086;2024-02-26T12:07:40;12.20;99.90
35445;DHT22;21562;49.476;6.086;2024-02-26T12:10:16;12.20;99.90
35445;DHT22;21562;49.476;6.086;2024-02-26T12:12:46;12.30;99.90
35445;DHT22;21562;49.476;6.086;2024-02-26T12:15:12;12.30;99.90
35445;DHT22;21562;49.476;6.086;2024-02-26T12:17:40;12.20;99.90
35445;DHT22;21562;49.476;6.086;2024-02-26T12:20:10;12.40;99.90
35445;DHT22;21562;49.476;6.086;2024-02-26T12:22:38;12.60;99.90
35445;DHT22;21562;49.476;6.086;2024-02-26T12:25:05;12.40;99.90
35445;DHT22;21562;49.476;6.086;2024-02-26T12:27:31;12.30;99.90
35445;DHT22;21562;49.476;6.086;2024-02-26T12:29:57;12.30;99.90
35445;DHT22;21562;49.476;6.086;2024-02-26T12:32:23;12.40;99.90
35445;DHT22;21562;49.476;6.086;2024-02-26T12:34:49;12.50;99.90
35445;DHT22;21562;49.476;6.086;2024-02-26T12:37:16;12.50;99.90
35445;DHT22;21562;49.476;6.086;2024-02-26T12:39:42;12.50;99.90
35445;DHT22;21562;49.476;6.086;2024-02-26T12:42:08;12.50;99.90
35445;DHT22;21562;49.476;6.086;2024-02-26T12:44:34;12.70;99.90
35445;DHT22;21562;49.476;6.086;2024-02-26T12:47:04;12.80;99.90
35445;DHT22;21562;49.476;6.086;2024-02-26T12:49:30;12.80;99.90
35445;DHT22;21562;49.476;6.086;2024-02-26T12:51:57;12.90;99.90
35445;DHT22;21562;49.476;6.086;2024-02-26T12:54:33;12.90;99.90
35445;DHT22;21562;49.476;6.086;2024-02-26T12:57:00;13.10;99.90
35445;DHT22;21562;49.476;6.086;2024-02-26T12:59:28;13.00;99.90
35445;DHT22;21562;49.476;6.086;2024-02-26T13:01:54;13.00;99.90
35445;DHT22;21562;49.476;6.086;2024-02-26T13:04:20;13.00;99.90
35445;DHT22;21562;49.476;6.086;2024-02-26T13:06:46;12.80;99.90
35445;DHT22;21562;49.476;6.086;2024-02-26T13:09:15;12.60;99.90
35445;DHT22;21562;49.476;6.086;2024-02-26T13:11:53;12.70;99.90
35445;DHT22;21562;49.476;6.086;2024-02-26T13:14:27;12.90;99.90
35445;DHT22;21562;49.476;6.086;2024-02-26T13:17:00;13.00;99.90
35445;DHT22;21562;49.476;6.086;2024-02-26T13:19:26;13.10;99.90
35445;DHT22;21562;49.476;6.086;2024-02-26T13:21:55;13.20;99.90
35445;DHT22;21562;49.476;6.086;2024-02-26T13:24:21;13.30;99.90
35445;DHT22;21562;49.476;6.086;2024-02-26T13:26:54;13.30;99.90
35445;DHT22;21562;49.476;6.086;2024-02-26T13:29:20;13.30;99.90
35445;DHT22;21562;49.476;6.086;2024-02-26T13:31:46;13.20;99.90
35445;DHT22;21562;49.476;6.086;2024-02-26T13:34:23;13.20;99.90
35445;DHT22;21562;49.476;6.086;2024-02-26T13:36:50;13.30;99.90
35445;DHT22;21562;49.476;6.086;2024-02-26T13:39:22;13.40;99.90
35445;DHT22;21562;49.476;6.086;2024-02-26T13:41:48;13.50;99.90
35445;DHT22;21562;49.476;6.086;2024-02-26T13:44:13;13.70;99.90
35445;DHT22;21562;49.476;6.086;2024-02-26T13:46:40;13.80;99.90
35445;DHT22;21562;49.476;6.086;2024-02-26T13:49:08;13.90;99.90
35445;DHT22;21562;49.476;6.086;2024-02-26T13:51:34;14.00;48.90
35445;DHT22;21562;49.476;6.086;2024-02-26T13:54:02;13.60;91.70
35445;DHT22;21562;49.476;6.086;2024-02-26T13:56:27;13.60;99.90
35445;DHT22;21562;49.476;6.086;2024-02-26T13:58:53;13.50;99.90
35445;DHT22;21562;49.476;6.086;2024-02-26T14:01:19;13.40;99.90
35445;DHT22;21562;49.476;6.086;2024-02-26T14:03:45;13.50;99.90
35445;DHT22;21562;49.476;6.086;2024-02-26T14:06:10;13.30;83.00
35445;DHT22;21562;49.476;6.086;2024-02-26T14:08:36;13.20;99.90
35445;DHT22;21562;49.476;6.086;2024-02-26T14:11:02;13.20;99.90
35445;DHT22;21562;49.476;6.086;2024-02-26T14:13:28;13.10;99.90
35445;DHT22;21562;49.476;6.086;2024-02-26T14:15:54;13.30;99.90
35445;DHT22;21562;49.476;6.086;2024-02-26T14:18:20;13.30;99.90
35445;DHT22;21562;49.476;6.086;2024-02-26T14:20:45;13.40;67.90
35445;DHT22;21562;49.476;6.086;2024-02-26T14:23:11;13.20;99.90
35445;DHT22;21562;49.476;6.086;2024-02-26T14:25:37;13.20;95.50
35445;DHT22;21562;49.476;6.086;2024-02-26T14:28:03;13.20;99.90
35445;DHT22;21562;49.476;6.086;2024-02-26T14:30:29;13.20;99.90
35445;DHT22;21562;49.476;6.086;2024-02-26T14:32:55;13.10;68.70
35445;DHT22;21562;49.476;6.086;2024-02-26T14:35:21;12.90;99.90
35445;DHT22;21562;49.476;6.086;2024-02-26T14:37:46;13.00;99.90
35445;DHT22;21562;49.476;6.086;2024-02-26T14:40:14;13.20;99.90
35445;DHT22;21562;49.476;6.086;2024-02-26T14:42:41;13.20;99.90
35445;DHT22;21562;49.476;6.086;2024-02-26T14:45:07;13.40;90.80
35445;DHT22;21562;49.476;6.086;2024-02-26T14:47:37;13.40;97.40
35445;DHT22;21562;49.476;6.086;2024-02-26T14:50:04;13.50;61.20
35445;DHT22;21562;49.476;6.086;2024-02-26T14:52:30;13.40;65.30
35445;DHT22;21562;49.476;6.086;2024-02-26T14:54:56;13.50;73.90
35445;DHT22;21562;49.476;6.086;2024-02-26T14:57:24;13.50;62.60
35445;DHT22;21562;49.476;6.086;2024-02-26T14:59:50;13.30;95.50
35445;DHT22;21562;49.476;6.086;2024-02-26T15:02:16;13.30;99.90
35445;DHT22;21562;49.476;6.086;2024-02-26T15:04:43;13.30;99.90
35445;DHT22;21562;49.476;6.086;2024-02-26T15:07:08;13.40;99.90
35445;DHT22;21562;49.476;6.086;2024-02-26T15:09:34;13.50;78.00
35445;DHT22;21562;49.476;6.086;2024-02-26T15:12:00;13.50;93.90
35445;DHT22;21562;49.476;6.086;2024-02-26T15:14:25;13.60;88.40
35445;DHT22;21562;49.476;6.086;2024-02-26T15:16:52;13.60;82.20
35445;DHT22;21562;49.476;6.086;2024-02-26T15:19:18;13.10;99.90
35445;DHT22;21562;49.476;6.086;2024-02-26T15:21:45;13.20;99.90
35445;DHT22;21562;49.476;6.086;2024-02-26T15:24:11;13.20;99.90
35445;DHT22;21562;49.476;6.086;2024-02-26T15:26:37;13.10;99.90
35445;DHT22;21562;49.476;6.086;2024-02-26T15:29:03;13.00;99.90
35445;DHT22;21562;49.476;6.086;2024-02-26T15:31:30;12.90;99.90
35445;DHT22;21562;49.476;6.086;2024-02-26T15:33:56;13.00;99.90
35445;DHT22;21562;49.476;6.086;2024-02-26T15:36:22;13.00;99.90
35445;DHT22;21562;49.476;6.086;2024-02-26T15:38:47;13.00;99.90
35445;DHT22;21562;49.476;6.086;2024-02-26T15:41:14;12.90;99.90
35445;DHT22;21562;49.476;6.086;2024-02-26T15:43:40;12.80;99.90
35445;DHT22;21562;49.476;6.086;2024-02-26T15:46:06;12.60;99.90
35445;DHT22;21562;49.476;6.086;2024-02-26T15:48:32;12.80;99.90
35445;DHT22;21562;49.476;6.086;2024-02-26T15:50:58;12.80;99.90
35445;DHT22;21562;49.476;6.086;2024-02-26T15:53:24;12.70;99.90
35445;DHT22;21562;49.476;6.086;2024-02-26T15:55:50;12.80;99.90